Perry, Maine
Current Conditions -  °F | °C
As of 12:40 AM on Thursday 27 Nov 2014 (Local Time) from CYSJ Reporting Station
Ice Pellets Ice Pellets  
Wind Chill: 20°   Ceiling: 2700
Heat Index: 32°   Visibility: 3mi
Dew Point: 32°   Wind: 20mph
Humidity: 100%   Direction: 40°NE
Pressure: 29.72"   Gusts: 31mph
Location:  44.98°N, 67.08°W
Report Text: CYSJ 270540Z 04017G27KT 3SM -PL BR SCT006 OVC027 00/M00 A2972 RMK SF3SC5 PRESFR SLP069
Loading
Personal Weather Stations






























Interactive Weather Map New forecast layout! Learn more

10-Day Weather Forecast

Advertisements
Track Severe Weather on mobile